CDT,Max TemperatureF,Mean TemperatureF,Min TemperatureF,Max Dew PointF,MeanDew PointF,Min DewpointF,Max Humidity, Mean Humidity, Min Humidity, Max Sea Level PressureIn, Mean Sea Level PressureIn, Min Sea Level PressureIn, Max VisibilityMiles, Mean VisibilityMiles, Min VisibilityMiles, Max Wind SpeedMPH, Mean Wind SpeedMPH, Max Gust SpeedMPH,PrecipitationIn, CloudCover, Events, WindDirDegrees
2013-6-1,75,68,60,64,62,55,100,77,53,29.97,29.81,29.70,10,9,2,20,10,25,0.37,4,Rain-Thunderstorm,260
2013-6-2,63,57,50,57,54,50,93,83,72,30.06,30.03,29.96,10,10,10,14,7,18,0.00,7,,332
2013-6-3,76,61,46,56,50,45,100,73,46,30.08,30.02,29.92,10,5,0,13,6,17,0.00,1,Fog,135
2013-6-4,73,67,60,64,59,55,84,75,66,30.01,29.96,29.92,10,10,7,20,11,24,0.05,3,Rain,136
2013-6-5,74,66,58,66,62,58,97,85,73,30.00,29.92,29.85,10,8,1,15,7,19,0.16,6,Rain-Thunderstorm,4
2013-6-6,73,64,55,63,59,54,100,81,61,29.96,29.92,29.88,10,5,0,16,5,18,0.07,6,Fog-Rain,355
2013-6-7,75,64,52,56,53,50,100,72,44,29.98,29.94,29.91,10,10,8,18,6,23,0.00,1,,344
2013-6-8,79,66,52,57,53,49,93,68,42,29.95,29.91,29.84,10,10,10,13,7,17,0.00,0,,168
2013-6-9,80,71,61,64,59,57,90,69,48,29.95,29.88,29.81,10,9,1,20,9,26,0.35,4,Rain-Thunderstorm,216
2013-6-10,88,74,60,71,63,57,84,68,51,29.90,29.86,29.81,10,10,10,15,5,19,0.00,0,,254
2013-6-11,93,82,70,69,66,61,90,62,33,29.97,29.92,29.89,10,10,10,20,11,26,0.00,0,,195
2013-6-12,91,81,71,70,68,66,90,67,44,29.94,29.89,29.85,10,10,10,29,14,36,0.00,0,Rain,206
2013-6-13,85,77,68,71,64,58,82,67,51,30.02,29.97,29.88,10,10,10,18,9,24,0.00,1,,10
2013-6-14,88,76,64,70,65,61,93,74,55,30.03,29.98,29.92,10,10,10,20,10,22,0.00,0,,139
2013-6-15,80,74,67,71,65,63,90,80,69,30.08,30.01,29.91,10,10,2,33,10,40,0.64,5,Rain-Thunderstorm,144
2013-6-16,88,78,67,73,68,61,93,75,57,30.02,29.96,29.88,10,10,8,29,9,33,0.27,5,Rain-Thunderstorm,188
2013-6-17,74,69,64,70,66,61,97,87,76,30.01,29.94,29.84,10,10,2,24,6,30,0.17,7,Rain-Thunderstorm,349
2013-6-18,86,72,58,65,62,57,97,71,45,30.02,29.99,29.94,10,10,8,28,4,31,0.00,0,,10
2013-6-19,87,75,62,65,63,60,93,71,48,30.04,30.00,29.97,10,10,10,13,5,17,0.00,1,,137
2013-6-20,89,77,65,68,66,62,87,67,46,30.07,30.02,29.97,10,10,10,20,12,24,0.00,0,,157
2013-6-21,91,82,72,73,70,67,84,68,52,30.06,30.02,29.97,10,10,10,18,13,24,0.00,0,,170
2013-6-22,89,81,72,72,70,68,87,70,52,30.05,30.00,29.93,10,10,9,18,12,24,0.00,0,Thunderstorm,168
2013-6-23,90,81,71,72,69,66,90,70,50,29.99,29.95,29.88,10,10,9,20,13,24,0.00,1,,172
2013-6-24,91,82,73,71,68,67,84,64,44,30.03,29.97,29.91,10,10,9,22,13,27,0.00,1,,182
2013-6-25,90,82,73,71,67,65,84,65,46,29.96,29.89,29.80,10,10,10,24,14,32,0.00,0,,181
2013-6-26,93,84,74,74,71,67,87,70,52,29.88,29.84,29.79,10,10,10,20,12,26,0.00,0,,229
2013-6-27,96,85,73,79,75,71,93,73,52,29.95,29.90,29.83,10,10,9,10,7,,0.00,0,,248
2013-6-28,89,80,70,73,67,58,100,72,43,29.95,29.88,29.82,10,9,2,36,10,54,0.18,3,Rain-Thunderstorm,325
2013-6-29,85,74,63,60,56,51,73,54,34,29.84,29.81,29.76,10,10,10,28,13,35,0.00,2,,314
2013-6-30,78,70,62,62,59,57,93,72,50,29.97,29.90,29.82,10,10,10,20,11,24,T,5,,350